createdAt,value
2019-04-21T00:00:15.108Z,5.40
2019-04-21T00:02:46.018Z,10.87
2019-04-21T00:05:34.548Z,12.00
2019-04-21T00:08:10.899Z,5.70
2019-04-21T00:10:36.418Z,6.20
2019-04-21T00:12:57.103Z,6.30
2019-04-21T00:15:16.721Z,8.10
2019-04-21T00:17:36.970Z,7.83
2019-04-21T00:20:19.189Z,6.27
2019-04-21T00:22:47.770Z,6.80
2019-04-21T00:25:22.737Z,5.93
2019-04-21T00:27:51.707Z,5.63
2019-04-21T00:30:26.974Z,5.37
2019-04-21T00:32:46.501Z,4.90
2019-04-21T00:35:11.749Z,5.40
2019-04-21T00:37:53.203Z,5.30
2019-04-21T00:40:27.783Z,5.10
2019-04-21T00:42:55.655Z,4.93
2019-04-21T00:45:22.281Z,4.83
2019-04-21T00:47:51.220Z,5.33
2019-04-21T00:50:25.596Z,6.20
2019-04-21T00:53:00.564Z,7.40
2019-04-21T00:55:32.505Z,5.93
2019-04-21T00:58:03.744Z,6.10
2019-04-21T01:00:30.471Z,6.10
2019-04-21T01:03:14.498Z,5.23
2019-04-21T01:05:27.846Z,6.60
2019-04-21T01:07:56.202Z,5.50
2019-04-21T01:10:17.474Z,5.73
2019-04-21T01:12:56.322Z,6.87
2019-04-21T01:15:35.213Z,5.97
2019-04-21T01:17:53.177Z,5.73
2019-04-21T01:20:12.944Z,5.33
2019-04-21T01:22:29.495Z,5.77
2019-04-21T01:25:05.587Z,5.37
2019-04-21T01:27:45.680Z,5.80
2019-04-21T01:30:19.224Z,5.13
2019-04-21T01:32:46.978Z,5.10
2019-04-21T01:35:08.386Z,5.17
2019-04-21T01:37:44.194Z,5.17
2019-04-21T01:40:16.856Z,5.03
2019-04-21T01:42:32.709Z,4.47
2019-04-21T01:45:08.050Z,4.93
2019-04-21T01:47:31.192Z,4.77
2019-04-21T01:49:56.795Z,4.70
2019-04-21T01:52:44.193Z,4.77
2019-04-21T01:55:08.088Z,4.73
2019-04-21T01:57:35.786Z,4.67
2019-04-21T01:59:58.666Z,5.03
2019-04-21T02:02:36.002Z,4.40
2019-04-21T02:05:10.302Z,4.77
2019-04-21T02:07:32.902Z,4.77
2019-04-21T02:10:07.110Z,4.50
2019-04-21T02:12:31.793Z,4.57
2019-04-21T02:15:17.162Z,4.90
2019-04-21T02:17:41.724Z,4.67
2019-04-21T02:19:49.137Z,5.10
2019-04-21T02:22:28.456Z,4.50
2019-04-21T02:24:58.421Z,5.13
2019-04-21T02:27:23.726Z,4.73
2019-04-21T02:29:55.645Z,5.17
2019-04-21T02:35:02.350Z,4.70
2019-04-21T02:37:51.189Z,4.87
2019-04-21T02:40:08.407Z,4.33
2019-04-21T02:42:18.646Z,4.87
2019-04-21T02:47:31.302Z,4.90
2019-04-21T02:52:27.419Z,5.00
2019-04-21T02:57:18.502Z,5.37
2019-04-21T02:59:55.488Z,5.27
2019-04-21T03:04:53.211Z,4.50
2019-04-21T03:09:46.038Z,4.47
2019-04-21T03:12:18.119Z,4.60
2019-04-21T03:14:56.212Z,5.10
2019-04-21T03:17:17.854Z,4.20
2019-04-21T03:19:55.677Z,4.50
2019-04-21T03:27:25.797Z,5.13
2019-04-21T03:32:31.816Z,4.67
2019-04-21T03:39:37.503Z,4.70
2019-04-21T03:44:37.352Z,4.60
2019-04-21T03:47:08.817Z,4.67
2019-04-21T03:49:39.048Z,4.47
2019-04-21T03:52:03.229Z,4.73
2019-04-21T03:54:30.858Z,4.77
2019-04-21T03:57:09.031Z,5.27
2019-04-21T03:59:19.666Z,4.53
2019-04-21T04:02:01.847Z,4.90
2019-04-21T04:11:54.704Z,4.80
2019-04-21T04:14:34.210Z,5.30
2019-04-21T04:17:06.458Z,4.83
2019-04-21T04:19:34.406Z,4.77
2019-04-21T04:29:19.941Z,5.27
2019-04-21T04:31:42.788Z,5.00
2019-04-21T04:34:22.687Z,4.60
2019-04-21T04:37:02.061Z,5.03
2019-04-21T04:41:53.054Z,4.53
2019-04-21T04:44:29.500Z,5.20
2019-04-21T04:49:23.734Z,5.33
2019-04-21T04:51:56.718Z,5.00
2019-04-21T04:54:17.494Z,5.63
2019-04-21T04:56:40.433Z,5.70
2019-04-21T05:04:28.327Z,4.70
2019-04-21T05:06:41.946Z,5.00
2019-04-21T05:09:09.372Z,5.57
2019-04-21T05:23:48.537Z,5.30
2019-04-21T05:26:09.973Z,5.07
2019-04-21T05:28:37.366Z,5.77
2019-04-21T05:31:18.245Z,5.40
2019-04-21T05:33:44.803Z,5.70
2019-04-21T05:36:14.229Z,5.50
2019-04-21T05:38:42.342Z,5.80
2019-04-21T05:41:06.297Z,5.97
2019-04-21T05:43:54.541Z,5.20
2019-04-21T05:46:14.260Z,5.97
2019-04-21T05:48:48.281Z,6.00
2019-04-21T05:51:11.827Z,6.00
2019-04-21T05:53:36.089Z,5.97
2019-04-21T05:56:12.552Z,5.67
2019-04-21T05:58:40.846Z,6.43
2019-04-21T06:01:14.633Z,5.93
2019-04-21T06:04:03.617Z,5.93
2019-04-21T06:08:58.429Z,5.73
2019-04-21T06:11:25.554Z,6.33
2019-04-21T06:16:29.724Z,5.90
2019-04-21T06:18:58.374Z,5.70
2019-04-21T06:21:16.304Z,6.30
2019-04-21T06:23:46.575Z,5.80
2019-04-21T06:26:44.784Z,5.80
2019-04-21T06:28:50.250Z,5.97
2019-04-21T06:31:20.205Z,5.80
2019-04-21T06:33:45.989Z,5.60
2019-04-21T06:41:32.707Z,5.60
2019-04-21T06:44:09.594Z,5.10
2019-04-21T06:49:07.023Z,5.10
2019-04-21T06:51:48.311Z,5.37
2019-04-21T06:54:21.091Z,5.60
2019-04-21T06:56:56.742Z,5.70
2019-04-21T06:59:24.632Z,5.20
2019-04-21T07:02:08.816Z,5.20
2019-04-21T07:04:50.505Z,4.70
2019-04-21T07:07:15.812Z,4.63
2019-04-21T07:09:48.304Z,4.93
2019-04-21T07:12:13.789Z,4.10
2019-04-21T07:14:46.949Z,4.63
2019-04-21T07:17:27.918Z,4.40
2019-04-21T07:22:40.149Z,4.00
2019-04-21T07:25:10.736Z,4.47
2019-04-21T07:27:35.337Z,4.40
2019-04-21T07:32:40.158Z,4.20
2019-04-21T07:35:16.684Z,4.50
2019-04-21T07:37:49.270Z,4.70
2019-04-21T07:40:17.746Z,4.83
2019-04-21T07:42:55.673Z,4.63
2019-04-21T07:45:22.492Z,4.47
2019-04-21T07:48:10.993Z,5.30
2019-04-21T07:50:45.463Z,4.50
2019-04-21T07:53:21.271Z,4.30
2019-04-21T07:55:34.251Z,4.30
2019-04-21T07:58:26.515Z,3.90
2019-04-21T08:01:04.514Z,4.23
2019-04-21T08:03:34.830Z,3.60
2019-04-21T08:08:26.032Z,3.60
2019-04-21T08:10:56.977Z,3.77
2019-04-21T08:13:34.170Z,3.30
2019-04-21T08:15:58.048Z,3.30
2019-04-21T08:18:28.679Z,3.07
2019-04-21T08:20:54.435Z,3.30
2019-04-21T08:23:29.714Z,3.20
2019-04-21T08:25:58.938Z,3.10
2019-04-21T08:28:23.814Z,3.27
2019-04-21T08:30:47.956Z,2.83
2019-04-21T08:33:25.009Z,3.13
2019-04-21T08:38:13.839Z,2.50
2019-04-21T08:40:49.493Z,3.00
2019-04-21T08:43:12.241Z,2.87
2019-04-21T08:45:42.037Z,2.70
2019-04-21T08:48:12.197Z,3.03
2019-04-21T08:50:38.955Z,3.13
2019-04-21T08:53:07.989Z,3.40
2019-04-21T08:55:41.978Z,2.80
2019-04-21T08:58:17.476Z,3.10
2019-04-21T09:00:43.241Z,3.40
2019-04-21T09:03:06.698Z,3.07
2019-04-21T09:05:38.638Z,3.33
2019-04-21T09:08:05.280Z,3.43
2019-04-21T09:10:34.796Z,3.13
2019-04-21T09:13:00.188Z,3.60
2019-04-21T09:15:31.119Z,3.10
2019-04-21T09:17:54.771Z,3.20
2019-04-21T09:20:33.602Z,3.07
2019-04-21T09:23:00.483Z,2.30
2019-04-21T09:25:33.367Z,2.93
2019-04-21T09:27:55.013Z,3.00
2019-04-21T09:30:08.854Z,3.00
2019-04-21T09:32:37.065Z,2.73
2019-04-21T09:35:09.842Z,2.43
2019-04-21T09:37:46.851Z,2.63
2019-04-21T09:40:06.764Z,2.70
2019-04-21T09:42:41.187Z,2.40
2019-04-21T09:45:08.004Z,3.33
2019-04-21T09:47:43.428Z,2.73
2019-04-21T09:50:06.623Z,2.90
2019-04-21T09:52:41.848Z,2.97
2019-04-21T09:55:09.990Z,2.80
2019-04-21T09:57:41.638Z,2.90
2019-04-21T10:00:11.962Z,2.70
2019-04-21T10:02:37.539Z,2.97
2019-04-21T10:04:59.480Z,3.10
2019-04-21T10:07:34.326Z,4.07
2019-04-21T10:09:55.381Z,2.83
2019-04-21T10:12:23.432Z,2.87
2019-04-21T10:14:51.768Z,2.80
2019-04-21T10:17:21.741Z,3.20
2019-04-21T10:19:48.734Z,3.17
2019-04-21T10:22:16.909Z,3.70
2019-04-21T10:24:44.609Z,3.57
2019-04-21T10:27:13.299Z,2.80
2019-04-21T10:29:43.186Z,2.73
2019-04-21T10:32:09.253Z,3.00
2019-04-21T10:34:37.131Z,3.37
2019-04-21T10:37:04.933Z,3.47
2019-04-21T10:39:32.067Z,3.33
2019-04-21T10:41:59.586Z,3.87
2019-04-21T10:44:27.331Z,3.00
2019-04-21T10:46:55.994Z,2.93
2019-04-21T10:49:22.791Z,2.70
2019-04-21T10:51:50.745Z,3.03
2019-04-21T10:54:18.023Z,3.00
2019-04-21T10:56:46.152Z,2.83
2019-04-21T10:59:14.283Z,2.83
2019-04-21T11:01:41.552Z,2.87
2019-04-21T11:04:19.562Z,3.53
2019-04-21T11:06:39.061Z,3.17
2019-04-21T11:09:08.807Z,3.57
2019-04-21T11:11:37.697Z,3.10
2019-04-21T11:14:06.465Z,2.97
2019-04-21T11:16:35.181Z,3.20
2019-04-21T11:19:02.378Z,3.20
2019-04-21T11:21:29.327Z,3.13
2019-04-21T11:23:56.521Z,3.47
2019-04-21T11:26:24.332Z,3.00
2019-04-21T11:28:52.665Z,3.60
2019-04-21T11:31:20.918Z,3.43
2019-04-21T11:33:49.136Z,3.30
2019-04-21T11:36:17.402Z,3.87
2019-04-21T11:39:05.614Z,3.00
2019-04-21T11:41:16.229Z,3.33
2019-04-21T11:43:43.343Z,3.77
2019-04-21T11:46:10.806Z,3.50
2019-04-21T11:48:38.020Z,3.73
2019-04-21T11:51:04.857Z,3.80
2019-04-21T11:53:32.866Z,3.40
2019-04-21T11:56:00.768Z,4.23
2019-04-21T11:58:28.251Z,3.60
2019-04-21T12:00:57.953Z,3.53
2019-04-21T12:03:24.936Z,4.23
2019-04-21T12:05:51.707Z,3.77
2019-04-21T12:08:27.402Z,4.30
2019-04-21T12:10:47.394Z,3.67
2019-04-21T12:13:14.175Z,4.07
2019-04-21T12:15:40.998Z,3.70
2019-04-21T12:18:08.049Z,4.03
2019-04-21T12:20:35.629Z,4.00
2019-04-21T12:23:02.924Z,3.47
2019-04-21T12:25:33.293Z,3.47
2019-04-21T12:28:01.726Z,3.90
2019-04-21T12:30:29.440Z,3.57
2019-04-21T12:32:58.177Z,3.03
2019-04-21T12:35:26.119Z,3.20
2019-04-21T12:37:55.031Z,3.63
2019-04-21T12:40:22.107Z,3.10
2019-04-21T12:42:48.934Z,4.03
2019-04-21T12:45:17.311Z,4.13
2019-04-21T12:47:48.309Z,3.37
2019-04-21T12:50:16.937Z,3.47
2019-04-21T12:52:45.373Z,3.80
2019-04-21T12:55:13.526Z,3.53
2019-04-21T12:57:41.538Z,3.70
2019-04-21T13:00:13.102Z,4.17
2019-04-21T13:02:40.055Z,5.17
2019-04-21T13:05:09.491Z,4.27
2019-04-21T13:07:37.390Z,3.80
2019-04-21T13:10:08.531Z,4.80
2019-04-21T13:12:35.761Z,4.93
2019-04-21T13:15:06.514Z,4.00
2019-04-21T13:17:33.518Z,3.43
2019-04-21T13:20:01.188Z,4.33
2019-04-21T13:22:28.176Z,4.20
2019-04-21T13:24:55.826Z,4.80
2019-04-21T13:27:22.822Z,4.10
2019-04-21T13:29:50.389Z,3.93
2019-04-21T13:32:18.465Z,5.70
2019-04-21T13:34:46.079Z,4.43
2019-04-21T13:37:15.281Z,10.67
2019-04-21T13:40:09.625Z,8.13
2019-04-21T13:42:21.391Z,4.23
2019-04-21T13:44:41.621Z,4.07
2019-04-21T13:47:08.310Z,3.67
2019-04-21T13:49:35.186Z,8.57
2019-04-21T13:52:04.818Z,3.30
2019-04-21T13:54:31.756Z,7.80
2019-04-21T13:56:58.717Z,4.77
2019-04-21T13:59:26.441Z,4.70
2019-04-21T14:01:53.996Z,4.73
2019-04-21T14:04:21.197Z,10.63
2019-04-21T14:06:48.156Z,7.00
2019-04-21T14:09:15.687Z,3.93
2019-04-21T14:11:43.463Z,3.77
2019-04-21T14:14:10.732Z,3.80
2019-04-21T14:16:38.239Z,4.40
2019-04-21T14:19:05.668Z,4.30
2019-04-21T14:21:33.687Z,3.73
2019-04-21T14:24:02.169Z,4.73
2019-04-21T14:26:30.110Z,9.10
2019-04-21T14:28:56.910Z,4.97
2019-04-21T14:31:24.172Z,9.53
2019-04-21T14:33:52.075Z,4.00
2019-04-21T14:36:20.944Z,4.80
2019-04-21T14:38:47.990Z,20.40
2019-04-21T14:41:15.041Z,24.43
2019-04-21T14:43:41.941Z,4.40
2019-04-21T14:46:11.078Z,5.37
2019-04-21T14:48:41.189Z,3.97
2019-04-21T14:51:11.221Z,3.87
2019-04-21T14:53:41.473Z,4.40
2019-04-21T14:56:09.138Z,4.03
2019-04-21T14:58:37.091Z,4.10
2019-04-21T15:01:06.078Z,8.30
2019-04-21T15:03:34.186Z,4.07
2019-04-21T15:06:01.510Z,4.20
2019-04-21T15:08:28.986Z,3.73
2019-04-21T15:10:56.917Z,4.80
2019-04-21T15:13:23.878Z,3.80
2019-04-21T15:15:52.099Z,4.30
2019-04-21T15:18:19.265Z,4.70
2019-04-21T15:20:48.593Z,4.23
2019-04-21T15:23:15.038Z,3.90
2019-04-21T15:25:41.950Z,4.60
2019-04-21T15:28:09.527Z,3.73
2019-04-21T15:30:36.617Z,5.13
2019-04-21T15:33:04.499Z,5.23
2019-04-21T15:35:33.008Z,4.20
2019-04-21T15:38:00.146Z,4.73
2019-04-21T15:40:39.815Z,4.60
2019-04-21T15:42:56.718Z,4.87
2019-04-21T15:45:24.346Z,4.87
2019-04-21T15:47:51.917Z,3.67
2019-04-21T15:50:20.190Z,4.37
2019-04-21T15:52:49.762Z,4.27
2019-04-21T15:55:19.056Z,4.00
2019-04-21T15:57:47.005Z,4.67
2019-04-21T16:00:18.354Z,3.80
2019-04-21T16:02:46.971Z,4.47
2019-04-21T16:05:15.041Z,5.03
2019-04-21T16:07:42.357Z,5.70
2019-04-21T16:10:13.064Z,5.13
2019-04-21T16:12:43.691Z,5.67
2019-04-21T16:15:12.511Z,5.53
2019-04-21T16:17:41.282Z,5.77
2019-04-21T16:20:10.160Z,6.23
2019-04-21T16:22:37.137Z,5.67
2019-04-21T16:25:06.675Z,6.40
2019-04-21T16:27:33.357Z,5.80
2019-04-21T16:30:01.820Z,6.67
2019-04-21T16:32:30.299Z,5.80
2019-04-21T16:35:06.382Z,6.13
2019-04-21T16:37:29.784Z,5.33
2019-04-21T16:39:56.940Z,4.97
2019-04-21T16:42:24.506Z,6.43
2019-04-21T16:44:52.774Z,6.27
2019-04-21T16:47:19.811Z,6.80
2019-04-21T16:49:47.563Z,6.50
2019-04-21T16:52:16.607Z,7.10
2019-04-21T16:54:46.125Z,6.70
2019-04-21T16:57:15.892Z,7.03
2019-04-21T16:59:44.519Z,6.50
2019-04-21T17:02:12.360Z,7.07
2019-04-21T17:04:40.303Z,7.13
2019-04-21T17:07:07.416Z,6.77
2019-04-21T17:09:34.727Z,7.30
2019-04-21T17:12:05.615Z,6.63
2019-04-21T17:14:45.272Z,6.93
2019-04-21T17:17:18.068Z,6.20
2019-04-21T17:19:31.424Z,6.33
2019-04-21T17:21:57.551Z,6.90
2019-04-21T17:24:24.670Z,5.77
2019-04-21T17:26:51.590Z,5.47
2019-04-21T17:29:18.943Z,6.17
2019-04-21T17:31:45.856Z,6.10
2019-04-21T17:34:18.028Z,6.47
2019-04-21T17:36:41.494Z,6.30
2019-04-21T17:39:08.940Z,7.30
2019-04-21T17:41:42.474Z,6.40
2019-04-21T17:44:06.685Z,7.33
2019-04-21T17:46:47.827Z,7.33
2019-04-21T17:49:16.983Z,7.37
2019-04-21T17:51:57.272Z,7.60
2019-04-21T17:54:36.009Z,8.23
2019-04-21T17:57:23.245Z,8.87
2019-04-21T18:02:36.653Z,8.30
2019-04-21T18:05:03.729Z,6.37
2019-04-21T18:07:47.722Z,7.13
2019-04-21T18:10:07.771Z,7.10
2019-04-21T18:12:36.238Z,7.03
2019-04-21T18:15:02.041Z,6.53
2019-04-21T18:17:28.956Z,6.50
2019-04-21T18:20:01.800Z,6.37
2019-04-21T18:22:45.470Z,5.90
2019-04-21T18:25:29.615Z,7.00
2019-04-21T18:27:54.570Z,6.50
2019-04-21T18:30:34.027Z,6.83
2019-04-21T18:33:14.227Z,6.80
2019-04-21T18:35:51.697Z,6.73
2019-04-21T18:38:35.569Z,6.57
2019-04-21T18:41:03.684Z,6.30
2019-04-21T18:44:11.854Z,6.50
2019-04-21T18:46:38.644Z,7.60
2019-04-21T18:49:01.451Z,8.83
2019-04-21T18:51:49.172Z,6.53
2019-04-21T18:54:36.729Z,6.03
2019-04-21T18:57:10.627Z,6.30
2019-04-21T18:59:45.715Z,6.07
2019-04-21T19:02:22.487Z,6.00
2019-04-21T19:05:12.657Z,5.93
2019-04-21T19:07:58.323Z,4.20
2019-04-21T19:10:40.645Z,5.70
2019-04-21T19:16:20.697Z,5.57
2019-04-21T19:18:40.170Z,6.80
2019-04-21T19:21:11.179Z,7.63
2019-04-21T19:23:57.915Z,7.90
2019-04-21T19:26:33.348Z,6.97
2019-04-21T19:29:16.045Z,7.90
2019-04-21T19:31:44.349Z,6.87
2019-04-21T19:34:14.336Z,7.10
2019-04-21T19:36:51.878Z,6.80
2019-04-21T19:39:39.064Z,6.97
2019-04-21T19:42:13.028Z,7.13
2019-04-21T19:44:56.456Z,7.60
2019-04-21T19:47:41.462Z,7.10
2019-04-21T19:50:21.080Z,7.83
2019-04-21T19:52:47.360Z,7.77
2019-04-21T19:55:14.300Z,7.93
2019-04-21T19:57:52.668Z,6.60
2019-04-21T20:00:32.494Z,6.93
2019-04-21T20:03:10.481Z,6.67
2019-04-21T20:05:59.308Z,7.30
2019-04-21T20:08:37.487Z,7.53
2019-04-21T20:11:23.913Z,7.50
2019-04-21T20:14:18.902Z,7.00
2019-04-21T20:16:41.740Z,7.50
2019-04-21T20:19:03.965Z,7.10
2019-04-21T20:21:35.749Z,7.70
2019-04-21T20:24:33.731Z,7.17
2019-04-21T20:27:17.771Z,7.53
2019-04-21T20:30:07.291Z,6.00
2019-04-21T20:32:54.167Z,6.37
2019-04-21T20:35:35.196Z,7.00
2019-04-21T20:38:00.386Z,6.53
2019-04-21T20:40:30.875Z,7.30
2019-04-21T20:43:26.964Z,7.27
2019-04-21T20:45:59.290Z,6.53
2019-04-21T20:48:29.644Z,7.00
2019-04-21T20:51:13.085Z,6.27
2019-04-21T20:53:49.075Z,6.57
2019-04-21T20:56:17.074Z,7.27
2019-04-21T20:58:58.145Z,7.13
2019-04-21T21:03:51.804Z,7.00
2019-04-21T21:06:26.263Z,6.63
2019-04-21T21:08:57.376Z,6.30
2019-04-21T21:11:26.137Z,7.00
2019-04-21T21:13:57.292Z,6.80
2019-04-21T21:16:36.853Z,6.87
2019-04-21T21:19:08.179Z,6.53
2019-04-21T21:21:21.028Z,7.17
2019-04-21T21:23:50.986Z,7.10
2019-04-21T21:26:23.433Z,6.70
2019-04-21T21:28:43.265Z,6.93
2019-04-21T21:31:14.818Z,6.60
2019-04-21T21:33:52.492Z,7.07
2019-04-21T21:36:13.776Z,7.83
2019-04-21T21:38:42.931Z,7.77
2019-04-21T21:41:03.698Z,8.80
2019-04-21T21:43:24.782Z,8.43
2019-04-21T21:45:55.643Z,8.87
2019-04-21T21:48:31.712Z,9.33
2019-04-21T21:50:57.801Z,8.80
2019-04-21T21:53:21.560Z,8.87
2019-04-21T21:55:46.854Z,9.33
2019-04-21T21:58:19.357Z,9.83
2019-04-21T22:00:49.759Z,10.50
2019-04-21T22:03:24.483Z,9.70
2019-04-21T22:05:53.526Z,10.57
2019-04-21T22:08:14.392Z,10.57
2019-04-21T22:10:41.330Z,11.13
2019-04-21T22:13:12.793Z,12.47
2019-04-21T22:15:37.685Z,12.00
2019-04-21T22:18:24.616Z,11.43
2019-04-21T22:20:56.478Z,12.13
2019-04-21T22:23:11.304Z,11.03
2019-04-21T22:25:34.790Z,11.17
2019-04-21T22:27:59.967Z,11.53
2019-04-21T22:30:36.647Z,10.00
2019-04-21T22:33:03.736Z,10.77
2019-04-21T22:35:34.781Z,10.83
2019-04-21T22:38:11.798Z,11.00
2019-04-21T22:40:45.243Z,11.37
2019-04-21T22:43:09.946Z,10.53
2019-04-21T22:45:25.139Z,10.30
2019-04-21T22:47:55.613Z,10.57
2019-04-21T22:50:26.672Z,10.03
2019-04-21T22:53:01.518Z,11.00
2019-04-21T22:55:27.275Z,10.97
2019-04-21T22:57:55.247Z,10.63
2019-04-21T23:00:23.707Z,10.40
2019-04-21T23:03:01.361Z,10.67
2019-04-21T23:05:28.276Z,11.13
2019-04-21T23:07:56.674Z,11.83
2019-04-21T23:10:23.264Z,11.23
2019-04-21T23:12:50.270Z,10.87
2019-04-21T23:15:22.749Z,11.13
2019-04-21T23:18:04.761Z,11.43
2019-04-21T23:20:42.007Z,11.50
2019-04-21T23:23:11.769Z,11.37
2019-04-21T23:25:30.510Z,11.57
2019-04-21T23:28:03.060Z,11.20
2019-04-21T23:30:39.003Z,10.00
2019-04-21T23:32:51.387Z,10.57
2019-04-21T23:35:19.675Z,11.43
2019-04-21T23:37:50.082Z,11.03
2019-04-21T23:40:17.691Z,11.93
2019-04-21T23:42:43.310Z,10.50
2019-04-21T23:45:10.558Z,11.57
2019-04-21T23:47:48.043Z,11.53
2019-04-21T23:50:21.110Z,11.50
2019-04-21T23:52:37.490Z,10.80
2019-04-21T23:55:07.331Z,10.90
2019-04-21T23:57:41.136Z,11.00
